Mato Grosso, Brazil
Current Conditions -  °F | °C
As of 8:00 PM on Friday 21 Nov 2014 (Local Time) from SLSI Reporting Station
Clear Clear  
Wind Chill: 79°   Ceiling: Unl
Heat Index: 82°   Visibility: 6mi
Dew Point: 75°   Wind: 0mph
Humidity: 89%   Direction: NA
Pressure: 29.77"   Gusts: NA
Location:  15.01°S, 59.94°W
Report Text: SLSI 212300Z 00000KT 9999 NSC 26/24 Q1008
Loading
Personal Weather Stations






























Interactive Weather Map New forecast layout! Learn more

10-Day Weather Forecast

Advertisements
Track Severe Weather on mobile